createdAt,value
2022-09-27T00:00:38.101Z,153.05
2022-09-27T00:03:05.175Z,172.07
2022-09-27T00:05:31.723Z,165.82
2022-09-27T00:07:58.278Z,204.10
2022-09-27T00:10:25.050Z,161.10
2022-09-27T00:12:52.254Z,135.30
2022-09-27T00:15:18.904Z,160.30
2022-09-27T00:17:45.408Z,184.27
2022-09-27T00:20:11.935Z,166.80
2022-09-27T00:22:38.434Z,195.00
2022-09-27T00:25:07.343Z,149.18
2022-09-27T00:27:33.790Z,139.93
2022-09-27T00:30:00.250Z,169.15
2022-09-27T00:32:26.666Z,160.00
2022-09-27T00:34:53.099Z,185.23
2022-09-27T00:37:19.599Z,182.27
2022-09-27T00:39:46.027Z,176.95
2022-09-27T00:42:13.253Z,210.80
2022-09-27T00:44:39.703Z,194.20
2022-09-27T00:47:09.160Z,196.27
2022-09-27T00:49:35.631Z,168.65
2022-09-27T00:52:03.984Z,227.65
2022-09-27T00:54:32.593Z,181.23
2022-09-27T00:56:59.885Z,177.27
2022-09-27T00:59:28.979Z,186.80
2022-09-27T01:01:56.360Z,191.77
2022-09-27T01:04:24.661Z,171.85
2022-09-27T01:06:52.681Z,174.80
2022-09-27T01:09:19.648Z,157.90
2022-09-27T01:12:05.063Z,181.73
2022-09-27T01:14:34.631Z,188.32
2022-09-27T01:17:03.873Z,223.73
2022-09-27T01:19:49.020Z,192.30
2022-09-27T01:22:24.472Z,190.30
2022-09-27T01:24:50.898Z,199.93
2022-09-27T01:27:33.190Z,201.77
2022-09-27T01:30:17.169Z,186.23
2022-09-27T01:32:49.956Z,171.40
2022-09-27T01:35:23.271Z,210.95
2022-09-27T01:40:28.946Z,230.00
2022-09-27T01:43:27.273Z,177.02
2022-09-27T01:45:59.606Z,222.90
2022-09-27T01:49:05.434Z,177.60
2022-09-27T01:51:35.382Z,182.80
2022-09-27T01:54:03.003Z,206.07
2022-09-27T01:56:34.286Z,177.48
2022-09-27T01:59:20.669Z,183.65
2022-09-27T02:01:55.671Z,207.90
2022-09-27T02:04:30.498Z,197.65
2022-09-27T02:07:38.183Z,162.65
2022-09-27T02:10:27.881Z,180.23
2022-09-27T02:12:58.265Z,198.60
2022-09-27T02:15:26.536Z,160.63
2022-09-27T02:18:15.543Z,188.77
2022-09-27T02:20:46.201Z,164.68
2022-09-27T02:23:31.605Z,165.25
2022-09-27T02:26:05.071Z,207.80
2022-09-27T02:28:55.018Z,174.57
2022-09-27T02:31:26.925Z,170.82
2022-09-27T02:33:59.453Z,218.95
2022-09-27T02:36:26.050Z,172.38
2022-09-27T02:38:52.570Z,164.40
2022-09-27T02:41:21.850Z,185.02
2022-09-27T02:43:50.240Z,190.00
2022-09-27T02:46:20.588Z,173.35
2022-09-27T02:49:04.402Z,184.07
2022-09-27T02:53:57.361Z,207.10
2022-09-27T02:56:56.378Z,186.70
2022-09-27T03:00:05.939Z,189.18
2022-09-27T03:03:02.957Z,191.25
2022-09-27T03:05:37.645Z,217.13
2022-09-27T03:08:04.579Z,200.55
2022-09-27T03:10:31.064Z,162.60
2022-09-27T03:12:58.760Z,236.32
2022-09-27T03:15:25.340Z,170.35
2022-09-27T03:18:00.885Z,207.85
2022-09-27T03:20:36.276Z,209.85
2022-09-27T03:23:14.386Z,230.70
2022-09-27T03:25:41.387Z,228.68
2022-09-27T03:28:09.302Z,205.38
2022-09-27T03:30:36.578Z,206.30
2022-09-27T03:33:03.472Z,228.80
2022-09-27T03:35:36.762Z,213.13
2022-09-27T03:38:04.466Z,243.35
2022-09-27T03:40:31.063Z,196.48
2022-09-27T03:42:57.886Z,231.50
2022-09-27T03:45:24.549Z,209.52
2022-09-27T03:47:51.234Z,229.10
2022-09-27T03:50:17.665Z,236.02
2022-09-27T03:52:44.952Z,255.27
2022-09-27T03:55:12.261Z,233.63
2022-09-27T03:57:38.945Z,224.05
2022-09-27T04:00:07.209Z,253.82
2022-09-27T04:02:40.090Z,211.18
2022-09-27T04:05:27.991Z,239.88
2022-09-27T04:08:01.533Z,228.43
2022-09-27T04:10:30.481Z,249.50
2022-09-27T04:12:57.414Z,242.60
2022-09-27T04:15:26.813Z,269.35
2022-09-27T04:18:11.877Z,282.63
2022-09-27T04:21:16.562Z,260.60
2022-09-27T04:23:49.223Z,265.27
2022-09-27T04:26:18.377Z,268.27
2022-09-27T04:28:57.922Z,272.38
2022-09-27T04:31:24.959Z,258.92
2022-09-27T04:34:46.325Z,254.13
2022-09-27T04:37:15.261Z,258.70
2022-09-27T04:39:49.356Z,253.73
2022-09-27T04:42:16.227Z,263.63
2022-09-27T04:44:43.016Z,224.35
2022-09-27T04:47:09.572Z,260.15
2022-09-27T04:49:36.815Z,258.50
2022-09-27T04:52:03.281Z,267.13
2022-09-27T04:54:30.210Z,259.85
2022-09-27T04:57:07.574Z,283.08
2022-09-27T04:59:34.344Z,236.23
2022-09-27T05:02:01.161Z,272.48
2022-09-27T05:04:58.860Z,227.52
2022-09-27T05:07:28.303Z,256.60
2022-09-27T05:10:00.664Z,252.90
2022-09-27T05:12:27.348Z,203.57
2022-09-27T05:14:57.463Z,206.93
2022-09-27T05:17:45.222Z,209.00
2022-09-27T05:20:30.486Z,220.48
2022-09-27T05:25:40.734Z,183.68
2022-09-27T05:28:09.130Z,199.90
2022-09-27T05:30:36.348Z,218.13
2022-09-27T05:33:10.715Z,194.38
2022-09-27T05:36:00.040Z,236.55
2022-09-27T05:38:30.184Z,175.77
2022-09-27T05:40:59.284Z,190.85
2022-09-27T05:43:25.756Z,195.95
2022-09-27T05:45:53.439Z,207.40
2022-09-27T05:48:22.151Z,191.27
2022-09-27T05:51:08.895Z,208.73
2022-09-27T05:53:38.597Z,198.27
2022-09-27T05:56:08.965Z,200.73
2022-09-27T05:58:55.702Z,187.40
2022-09-27T06:01:22.966Z,161.30
2022-09-27T06:04:09.815Z,176.25
2022-09-27T06:07:02.608Z,181.77
2022-09-27T06:09:29.252Z,149.40
2022-09-27T06:11:56.844Z,131.50
2022-09-27T06:14:23.765Z,128.15
2022-09-27T06:16:58.913Z,166.10
2022-09-27T06:19:28.433Z,121.50
2022-09-27T06:21:55.966Z,145.50
2022-09-27T06:24:22.899Z,152.05
2022-09-27T06:26:49.466Z,152.68
2022-09-27T06:29:35.263Z,181.20
2022-09-27T06:32:03.886Z,159.25
2022-09-27T06:34:41.723Z,131.60
2022-09-27T06:37:08.345Z,130.57
2022-09-27T06:39:35.034Z,138.73
2022-09-27T06:42:21.865Z,136.25
2022-09-27T06:45:10.083Z,128.77
2022-09-27T06:47:57.061Z,157.18
2022-09-27T06:50:30.360Z,153.45
2022-09-27T06:52:56.824Z,147.88
2022-09-27T06:55:23.811Z,126.13
2022-09-27T06:58:12.509Z,140.15
2022-09-27T07:00:43.144Z,124.05
2022-09-27T07:03:30.733Z,119.65
2022-09-27T07:06:22.928Z,146.35
2022-09-27T07:08:58.657Z,152.60
2022-09-27T07:11:26.134Z,128.93
2022-09-27T07:13:53.187Z,174.23
2022-09-27T07:16:19.721Z,117.97
2022-09-27T07:18:47.434Z,121.72
2022-09-27T07:21:16.248Z,131.23
2022-09-27T07:23:42.789Z,137.00
2022-09-27T07:26:12.744Z,124.63
2022-09-27T07:28:41.525Z,107.20
2022-09-27T07:31:09.152Z,98.40
2022-09-27T07:33:37.199Z,113.80
2022-09-27T07:36:08.347Z,107.82
2022-09-27T07:38:36.313Z,80.95
2022-09-27T07:41:07.065Z,117.93
2022-09-27T07:43:33.473Z,99.22
2022-09-27T07:46:00.231Z,90.15
2022-09-27T07:48:36.906Z,85.55
2022-09-27T07:51:32.616Z,96.13
2022-09-27T07:54:19.300Z,79.53
2022-09-27T07:57:06.577Z,83.18
2022-09-27T07:59:42.974Z,82.15
2022-09-27T08:02:14.048Z,86.15
2022-09-27T08:04:40.890Z,96.65
2022-09-27T08:07:09.378Z,127.57
2022-09-27T08:09:37.928Z,78.43
2022-09-27T08:12:04.785Z,95.97
2022-09-27T08:14:31.755Z,74.78
2022-09-27T08:16:58.887Z,93.95
2022-09-27T08:19:28.142Z,67.82
2022-09-27T08:22:00.342Z,125.90
2022-09-27T08:24:33.055Z,82.32
2022-09-27T08:27:04.441Z,59.05
2022-09-27T08:29:52.831Z,90.88
2022-09-27T08:32:23.025Z,68.47
2022-09-27T08:34:50.049Z,82.05
2022-09-27T08:37:16.563Z,61.13
2022-09-27T08:39:47.619Z,80.18
2022-09-27T08:42:30.432Z,75.25
2022-09-27T08:45:11.042Z,65.05
2022-09-27T08:47:40.614Z,57.30
2022-09-27T08:50:10.464Z,107.57
2022-09-27T08:52:42.578Z,73.28
2022-09-27T08:55:22.219Z,223.20
2022-09-27T08:57:51.971Z,93.22
2022-09-27T09:00:18.533Z,61.60
2022-09-27T09:02:45.027Z,60.83
2022-09-27T09:05:14.872Z,65.43
2022-09-27T09:07:41.271Z,62.65
2022-09-27T09:10:40.360Z,43.15
2022-09-27T09:13:28.150Z,54.38
2022-09-27T09:16:17.892Z,68.95
2022-09-27T09:18:52.100Z,63.53
2022-09-27T09:21:35.091Z,64.55
2022-09-27T09:24:04.565Z,97.22
2022-09-27T09:26:43.941Z,58.92
2022-09-27T09:29:28.599Z,52.88
2022-09-27T09:32:14.114Z,115.80
2022-09-27T09:34:45.372Z,76.03
2022-09-27T09:37:17.062Z,66.80
2022-09-27T09:39:51.622Z,51.28
2022-09-27T09:42:32.508Z,49.28
2022-09-27T09:45:02.296Z,58.05
2022-09-27T09:47:51.374Z,62.47
2022-09-27T09:50:26.021Z,49.97
2022-09-27T09:53:12.072Z,58.03
2022-09-27T09:55:39.882Z,63.53
2022-09-27T09:58:25.421Z,62.55
2022-09-27T10:01:09.362Z,82.28
2022-09-27T10:03:35.892Z,58.97
2022-09-27T10:06:02.365Z,72.57
2022-09-27T10:08:28.897Z,66.47
2022-09-27T10:11:26.397Z,55.65
2022-09-27T10:14:10.490Z,70.80
2022-09-27T10:16:37.279Z,82.63
2022-09-27T10:19:04.464Z,61.03
2022-09-27T10:21:31.271Z,48.85
2022-09-27T10:24:13.710Z,167.90
2022-09-27T10:27:01.794Z,48.17
2022-09-27T10:29:37.968Z,52.42
2022-09-27T10:32:18.982Z,73.72
2022-09-27T10:34:45.914Z,44.13
2022-09-27T10:37:13.203Z,44.92
2022-09-27T10:39:53.786Z,79.32
2022-09-27T10:42:38.618Z,49.83
2022-09-27T10:45:34.471Z,70.47
2022-09-27T10:48:20.746Z,51.75
2022-09-27T10:50:59.632Z,56.28
2022-09-27T10:53:44.478Z,49.30
2022-09-27T10:56:21.757Z,61.95
2022-09-27T10:58:48.322Z,76.72
2022-09-27T11:01:16.971Z,33.70
2022-09-27T11:04:04.312Z,82.80
2022-09-27T11:06:37.926Z,56.08
2022-09-27T11:09:24.161Z,50.97
2022-09-27T11:12:05.692Z,55.65
2022-09-27T11:14:33.047Z,66.65
2022-09-27T11:17:13.064Z,59.70
2022-09-27T11:20:00.632Z,75.43
2022-09-27T11:22:41.383Z,42.85
2022-09-27T11:25:18.075Z,57.30
2022-09-27T11:28:03.871Z,65.75
2022-09-27T11:30:41.020Z,46.08
2022-09-27T11:33:39.559Z,66.03
2022-09-27T11:36:25.746Z,61.58
2022-09-27T11:38:53.763Z,70.15
2022-09-27T11:41:31.060Z,64.15
2022-09-27T11:44:04.174Z,93.57
2022-09-27T11:46:41.302Z,51.60
2022-09-27T11:49:24.181Z,42.72
2022-09-27T11:52:02.416Z,77.20
2022-09-27T11:54:32.159Z,59.30
2022-09-27T11:56:58.787Z,65.47
2022-09-27T11:59:54.571Z,52.97
2022-09-27T12:02:30.063Z,56.30
2022-09-27T12:04:57.283Z,73.13
2022-09-27T12:07:32.004Z,49.72
2022-09-27T12:10:03.529Z,69.68
2022-09-27T12:12:33.254Z,58.05
2022-09-27T12:15:21.405Z,40.42
2022-09-27T12:17:50.302Z,56.10
2022-09-27T12:20:28.586Z,71.60
2022-09-27T12:22:59.878Z,64.30
2022-09-27T12:25:48.361Z,58.38
2022-09-27T12:28:33.353Z,48.72
2022-09-27T12:31:27.552Z,55.67
2022-09-27T12:34:00.235Z,70.07
2022-09-27T12:36:29.158Z,58.88
2022-09-27T12:39:23.710Z,60.60
2022-09-27T12:42:10.711Z,82.03
2022-09-27T12:44:47.481Z,46.35
2022-09-27T12:47:18.215Z,45.35
2022-09-27T12:50:01.458Z,52.28
2022-09-27T12:52:31.742Z,93.05
2022-09-27T12:55:08.838Z,149.20
2022-09-27T12:57:41.466Z,126.78
2022-09-27T13:00:20.764Z,50.75
2022-09-27T13:06:03.943Z,71.40
2022-09-27T13:08:43.863Z,73.75
2022-09-27T13:11:23.717Z,89.85
2022-09-27T13:13:54.516Z,66.43
2022-09-27T13:16:21.702Z,36.42
2022-09-27T13:18:53.492Z,49.47
2022-09-27T13:21:39.101Z,42.17
2022-09-27T13:24:47.182Z,331.27
2022-09-27T13:27:44.904Z,64.13
2022-09-27T13:30:19.906Z,96.85
2022-09-27T13:33:06.076Z,40.40
2022-09-27T13:35:39.102Z,67.97
2022-09-27T13:38:23.676Z,50.00
2022-09-27T13:40:51.959Z,74.22
2022-09-27T13:43:41.530Z,55.20
2022-09-27T13:46:27.062Z,56.35
2022-09-27T13:49:00.612Z,67.60
2022-09-27T13:52:00.091Z,80.35
2022-09-27T13:54:35.706Z,72.57
2022-09-27T13:57:06.540Z,51.90
2022-09-27T13:59:34.620Z,84.57
2022-09-27T14:02:21.462Z,101.85
2022-09-27T14:04:52.578Z,60.17
2022-09-27T14:07:22.757Z,58.65
2022-09-27T14:09:54.385Z,79.60
2022-09-27T14:12:27.401Z,68.30
2022-09-27T14:14:55.431Z,50.35
2022-09-27T14:17:22.949Z,55.88
2022-09-27T14:19:52.783Z,70.43
2022-09-27T14:22:21.712Z,49.85
2022-09-27T14:24:54.932Z,88.72
2022-09-27T14:27:26.801Z,40.78
2022-09-27T14:30:10.782Z,69.82
2022-09-27T14:32:47.806Z,42.80
2022-09-27T14:35:43.281Z,65.72
2022-09-27T14:38:37.093Z,87.65
2022-09-27T14:41:10.620Z,99.97
2022-09-27T14:43:43.091Z,58.80
2022-09-27T14:46:26.853Z,56.95
2022-09-27T14:51:21.794Z,68.00
2022-09-27T14:53:49.951Z,67.85
2022-09-27T14:56:19.306Z,40.33
2022-09-27T14:58:48.021Z,64.35
2022-09-27T15:01:16.326Z,71.03
2022-09-27T15:03:44.859Z,178.43
2022-09-27T15:06:11.562Z,66.07
2022-09-27T15:08:38.732Z,64.47
2022-09-27T15:11:06.920Z,79.35
2022-09-27T15:13:34.337Z,71.35
2022-09-27T15:16:01.352Z,89.30
2022-09-27T15:18:32.840Z,77.78
2022-09-27T15:21:00.059Z,95.22
2022-09-27T15:23:27.710Z,65.40
2022-09-27T15:25:59.298Z,98.18
2022-09-27T15:28:27.102Z,48.50
2022-09-27T15:30:55.639Z,110.43
2022-09-27T15:33:35.807Z,64.07
2022-09-27T15:36:04.093Z,76.28
2022-09-27T15:38:33.637Z,51.22
2022-09-27T15:41:08.114Z,89.28
2022-09-27T15:43:35.895Z,89.22
2022-09-27T15:46:04.551Z,122.82
2022-09-27T15:48:32.623Z,87.45
2022-09-27T15:50:59.404Z,63.22
2022-09-27T15:53:35.013Z,76.40
2022-09-27T15:56:02.351Z,82.47
2022-09-27T15:58:28.909Z,93.45
2022-09-27T16:00:56.664Z,92.07
2022-09-27T16:03:23.908Z,99.63
2022-09-27T16:05:50.376Z,137.93
2022-09-27T16:08:17.094Z,68.57
2022-09-27T16:10:45.701Z,53.25
2022-09-27T16:13:12.169Z,78.22
2022-09-27T16:15:38.822Z,65.28
2022-09-27T16:18:05.385Z,93.72
2022-09-27T16:20:32.109Z,94.75
2022-09-27T16:22:58.646Z,62.55
2022-09-27T16:25:25.177Z,59.65
2022-09-27T16:27:52.501Z,134.45
2022-09-27T16:30:20.566Z,64.72
2022-09-27T16:32:47.741Z,49.65
2022-09-27T16:35:15.207Z,80.47
2022-09-27T16:37:41.896Z,57.40
2022-09-27T16:40:09.318Z,57.55
2022-09-27T16:42:36.055Z,59.75
2022-09-27T16:45:07.448Z,80.78
2022-09-27T16:47:37.136Z,74.05
2022-09-27T16:50:23.065Z,156.18
2022-09-27T16:52:50.137Z,50.75
2022-09-27T16:55:21.085Z,76.88
2022-09-27T16:57:50.788Z,67.72
2022-09-27T17:00:18.032Z,62.78
2022-09-27T17:02:48.432Z,93.15
2022-09-27T17:05:15.554Z,64.50
2022-09-27T17:07:42.454Z,58.70
2022-09-27T17:10:09.089Z,79.05
2022-09-27T17:12:35.569Z,62.20
2022-09-27T17:15:02.067Z,72.22
2022-09-27T17:17:28.576Z,99.45
2022-09-27T17:19:55.123Z,96.03
2022-09-27T17:22:21.539Z,77.28
2022-09-27T17:24:47.959Z,82.68
2022-09-27T17:27:14.432Z,80.82
2022-09-27T17:29:40.907Z,140.65
2022-09-27T17:32:08.718Z,134.68
2022-09-27T17:34:35.741Z,86.05
2022-09-27T17:37:02.277Z,102.50
2022-09-27T17:39:28.758Z,112.03
2022-09-27T17:41:55.238Z,96.20
2022-09-27T17:44:23.604Z,89.95
2022-09-27T17:47:10.086Z,109.10
2022-09-27T17:49:55.073Z,83.13
2022-09-27T17:52:22.208Z,102.95
2022-09-27T17:54:48.738Z,84.68
2022-09-27T17:57:15.142Z,80.35
2022-09-27T17:59:41.676Z,88.35
2022-09-27T18:02:08.184Z,118.13
2022-09-27T18:04:35.044Z,119.93
2022-09-27T18:07:01.484Z,94.50
2022-09-27T18:09:28.021Z,78.78
2022-09-27T18:11:54.473Z,100.30
2022-09-27T18:14:22.889Z,112.00
2022-09-27T18:16:49.349Z,72.60
2022-09-27T18:19:17.039Z,60.03
2022-09-27T18:21:43.920Z,86.65
2022-09-27T18:24:10.932Z,82.95
2022-09-27T18:26:38.812Z,71.28
2022-09-27T18:29:06.842Z,95.50
2022-09-27T18:31:38.055Z,78.35
2022-09-27T18:34:04.494Z,90.97
2022-09-27T18:36:31.091Z,80.85
2022-09-27T18:38:58.484Z,77.82
2022-09-27T18:41:26.396Z,82.65
2022-09-27T18:43:57.957Z,141.23
2022-09-27T18:46:41.304Z,82.68
2022-09-27T18:49:09.337Z,85.78
2022-09-27T18:51:37.576Z,72.50
2022-09-27T18:54:09.458Z,82.57
2022-09-27T18:56:44.776Z,62.90
2022-09-27T18:59:11.588Z,80.90
2022-09-27T19:01:39.603Z,112.93
2022-09-27T19:04:07.306Z,83.70
2022-09-27T19:06:33.926Z,66.07
2022-09-27T19:09:00.546Z,86.38
2022-09-27T19:11:27.519Z,84.90
2022-09-27T19:13:55.271Z,87.82
2022-09-27T19:16:22.415Z,122.93
2022-09-27T19:18:49.693Z,75.90
2022-09-27T19:21:17.866Z,87.35
2022-09-27T19:23:44.896Z,88.22
2022-09-27T19:26:12.724Z,97.82
2022-09-27T19:28:40.449Z,70.22
2022-09-27T19:31:07.887Z,98.78
2022-09-27T19:33:37.342Z,71.22
2022-09-27T19:36:04.922Z,80.53
2022-09-27T19:38:32.075Z,80.47
2022-09-27T19:40:58.752Z,78.53
2022-09-27T19:43:25.294Z,81.72
2022-09-27T19:45:51.815Z,167.32
2022-09-27T19:48:18.503Z,80.05
2022-09-27T19:50:54.780Z,75.43
2022-09-27T19:53:21.269Z,88.88
2022-09-27T19:55:47.700Z,83.00
2022-09-27T19:58:14.128Z,82.70
2022-09-27T20:00:40.617Z,58.75
2022-09-27T20:03:07.091Z,76.85
2022-09-27T20:05:33.628Z,72.30
2022-09-27T20:08:00.148Z,96.93
2022-09-27T20:10:26.593Z,71.50
2022-09-27T20:12:53.896Z,74.50
2022-09-27T20:15:21.112Z,74.25
2022-09-27T20:17:47.582Z,101.28
2022-09-27T20:20:14.137Z,68.93
2022-09-27T20:22:40.648Z,64.18
2022-09-27T20:25:07.267Z,65.00
2022-09-27T20:27:33.729Z,77.80
2022-09-27T20:30:00.852Z,110.57
2022-09-27T20:32:28.479Z,80.47
2022-09-27T20:34:55.217Z,91.38
2022-09-27T20:37:21.687Z,84.13
2022-09-27T20:39:48.649Z,87.57
2022-09-27T20:42:15.116Z,82.78
2022-09-27T20:44:41.540Z,85.55
2022-09-27T20:47:08.033Z,106.38
2022-09-27T20:49:34.595Z,74.38
2022-09-27T20:52:01.191Z,186.70
2022-09-27T20:54:27.632Z,72.18
2022-09-27T20:56:55.518Z,73.28
2022-09-27T20:59:23.002Z,95.22
2022-09-27T21:01:50.422Z,93.47
2022-09-27T21:04:18.055Z,65.95
2022-09-27T21:06:44.895Z,83.18
2022-09-27T21:09:18.229Z,91.57
2022-09-27T21:11:45.656Z,71.18
2022-09-27T21:14:12.247Z,80.97
2022-09-27T21:16:38.671Z,82.60
2022-09-27T21:19:05.623Z,83.43
2022-09-27T21:21:32.073Z,102.35
2022-09-27T21:24:00.050Z,112.68
2022-09-27T21:26:27.898Z,91.47
2022-09-27T21:28:55.675Z,108.00
2022-09-27T21:31:23.625Z,86.07
2022-09-27T21:33:53.409Z,111.28
2022-09-27T21:36:20.213Z,99.68
2022-09-27T21:38:46.710Z,137.68
2022-09-27T21:41:17.171Z,111.97
2022-09-27T21:43:44.626Z,123.70
2022-09-27T21:46:11.062Z,106.85
2022-09-27T21:48:38.663Z,113.30
2022-09-27T21:51:13.005Z,135.02
2022-09-27T21:53:40.860Z,126.05
2022-09-27T21:56:07.895Z,153.07
2022-09-27T21:58:35.235Z,121.85
2022-09-27T22:01:12.141Z,142.90
2022-09-27T22:03:39.368Z,127.90
2022-09-27T22:06:08.713Z,102.25
2022-09-27T22:08:35.302Z,107.60
2022-09-27T22:11:01.770Z,133.82
2022-09-27T22:13:28.273Z,108.57
2022-09-27T22:15:54.855Z,116.40
2022-09-27T22:18:21.577Z,112.28
2022-09-27T22:20:48.148Z,118.60
2022-09-27T22:23:14.663Z,120.13
2022-09-27T22:25:41.185Z,113.70
2022-09-27T22:28:08.359Z,102.47
2022-09-27T22:30:35.002Z,109.45
2022-09-27T22:33:01.461Z,112.28
2022-09-27T22:35:27.960Z,124.75
2022-09-27T22:37:54.774Z,119.25
2022-09-27T22:40:21.293Z,124.50
2022-09-27T22:42:48.072Z,97.55
2022-09-27T22:45:14.551Z,90.78
2022-09-27T22:47:41.041Z,124.03
2022-09-27T22:50:07.662Z,123.28
2022-09-27T22:52:34.101Z,107.57
2022-09-27T22:55:00.530Z,144.70
2022-09-27T22:57:27.100Z,116.70
2022-09-27T22:59:53.560Z,124.30
2022-09-27T23:02:20.060Z,159.10
2022-09-27T23:04:46.559Z,96.78
2022-09-27T23:07:13.191Z,107.32
2022-09-27T23:09:40.372Z,117.53
2022-09-27T23:12:07.497Z,122.63
2022-09-27T23:14:33.961Z,89.13
2022-09-27T23:17:01.552Z,113.10
2022-09-27T23:19:28.110Z,93.85
2022-09-27T23:21:54.583Z,125.35
2022-09-27T23:24:21.278Z,111.28
2022-09-27T23:27:07.679Z,96.88
2022-09-27T23:29:34.138Z,114.43
2022-09-27T23:32:00.736Z,151.77
2022-09-27T23:34:27.220Z,111.40
2022-09-27T23:36:53.694Z,97.85
2022-09-27T23:39:20.175Z,119.38
2022-09-27T23:41:48.160Z,110.78
2022-09-27T23:44:15.554Z,103.18
2022-09-27T23:46:42.501Z,100.82
2022-09-27T23:49:09.240Z,144.20
2022-09-27T23:51:36.322Z,103.35
2022-09-27T23:54:04.429Z,117.07
2022-09-27T23:56:30.869Z,119.35
2022-09-27T23:58:57.429Z,110.22
